createdAt,value
2019-02-28T00:00:52.127Z,3.90
2019-02-28T00:03:17.832Z,4.20
2019-02-28T00:05:49.003Z,4.10
2019-02-28T00:08:16.609Z,4.60
2019-02-28T00:10:43.227Z,4.50
2019-02-28T00:13:10.115Z,4.10
2019-02-28T00:15:36.883Z,4.10
2019-02-28T00:18:04.021Z,4.20
2019-02-28T00:20:32.914Z,4.20
2019-02-28T00:22:59.270Z,4.30
2019-02-28T00:25:31.098Z,4.40
2019-02-28T00:27:58.000Z,4.20
2019-02-28T00:30:24.652Z,3.70
2019-02-28T00:32:51.287Z,3.70
2019-02-28T00:35:18.096Z,3.80
2019-02-28T00:37:44.856Z,3.90
2019-02-28T00:42:58.400Z,3.90
2019-02-28T00:45:24.809Z,3.90
2019-02-28T00:47:51.507Z,3.30
2019-02-28T00:50:23.474Z,3.20
2019-02-28T00:52:54.551Z,3.20
2019-02-28T00:55:18.615Z,3.50
2019-02-28T01:00:37.149Z,3.50
2019-02-28T01:03:08.794Z,3.50
2019-02-28T01:05:37.646Z,3.90
2019-02-28T01:08:04.314Z,3.70
2019-02-28T01:10:31.345Z,3.50
2019-02-28T01:12:58.174Z,3.40
2019-02-28T01:15:24.903Z,3.20
2019-02-28T01:17:51.589Z,3.50
2019-02-28T01:20:18.504Z,3.70
2019-02-28T01:22:45.092Z,3.70
2019-02-28T01:25:11.817Z,3.50
2019-02-28T01:30:32.083Z,3.60
2019-02-28T01:32:59.698Z,3.40
2019-02-28T01:35:26.363Z,3.30
2019-02-28T01:37:53.084Z,3.50
2019-02-28T01:40:32.129Z,3.70
2019-02-28T01:42:58.810Z,3.30
2019-02-28T01:47:58.295Z,3.40
2019-02-28T01:50:24.870Z,3.30
2019-02-28T01:52:51.633Z,3.30
2019-02-28T01:55:18.318Z,3.30
2019-02-28T01:57:45.017Z,2.90
2019-02-28T02:00:11.725Z,3.20
2019-02-28T02:02:39.227Z,3.00
2019-02-28T02:05:05.933Z,2.80
2019-02-28T02:10:17.590Z,3.20
2019-02-28T02:13:03.199Z,2.70
2019-02-28T02:15:32.557Z,3.00
2019-02-28T02:17:59.232Z,3.10
2019-02-28T02:20:26.249Z,3.10
2019-02-28T02:22:54.651Z,2.80
2019-02-28T02:25:21.305Z,3.20
2019-02-28T02:27:52.957Z,3.10
2019-02-28T02:30:16.411Z,3.10
2019-02-28T02:32:43.075Z,3.20
2019-02-28T02:35:09.734Z,3.00
2019-02-28T02:37:36.537Z,3.10
2019-02-28T02:40:03.146Z,3.30
2019-02-28T02:42:29.806Z,3.40
2019-02-28T02:44:56.536Z,3.50
2019-02-28T02:50:10.934Z,3.00
2019-02-28T02:55:06.154Z,2.90
2019-02-28T02:57:33.075Z,2.80
2019-02-28T02:59:59.824Z,2.60
2019-02-28T03:02:28.804Z,2.70
2019-02-28T03:04:58.504Z,2.90
2019-02-28T03:07:25.010Z,2.90
2019-02-28T03:09:51.704Z,2.50
2019-02-28T03:12:20.244Z,3.00
2019-02-28T03:14:48.773Z,2.90
2019-02-28T03:17:15.306Z,3.40
2019-02-28T03:19:42.193Z,3.40
2019-02-28T03:22:08.987Z,3.00
2019-02-28T03:24:35.843Z,2.90
2019-02-28T03:27:03.476Z,2.70
2019-02-28T03:29:30.123Z,2.60
2019-02-28T03:31:59.589Z,2.60
2019-02-28T03:34:33.775Z,2.50
2019-02-28T03:37:00.525Z,2.60
2019-02-28T03:39:27.522Z,2.60
2019-02-28T03:41:54.308Z,2.80
2019-02-28T03:44:21.880Z,2.60
2019-02-28T03:46:48.763Z,2.40
2019-02-28T03:51:51.234Z,3.20
2019-02-28T03:54:19.115Z,3.30
2019-02-28T03:56:51.030Z,3.10
2019-02-28T03:59:18.197Z,3.10
2019-02-28T04:01:45.684Z,2.40
2019-02-28T04:04:13.279Z,2.50
2019-02-28T04:06:42.081Z,2.40
2019-02-28T04:09:09.907Z,2.20
2019-02-28T04:11:51.033Z,2.60
2019-02-28T04:14:17.869Z,2.80
2019-02-28T04:16:52.517Z,2.70
2019-02-28T04:19:21.345Z,2.40
2019-02-28T04:21:46.669Z,2.40
2019-02-28T04:24:14.918Z,2.20
2019-02-28T04:26:47.834Z,2.40
2019-02-28T04:29:29.787Z,2.00
2019-02-28T04:31:52.428Z,2.10
2019-02-28T04:34:20.173Z,2.40
2019-02-28T04:36:53.145Z,2.70
2019-02-28T04:39:31.864Z,2.50
2019-02-28T04:41:59.567Z,2.20
2019-02-28T04:44:31.288Z,2.20
2019-02-28T04:46:59.562Z,2.20
2019-02-28T04:49:33.204Z,2.50
2019-02-28T04:52:00.005Z,2.60
2019-02-28T04:54:27.812Z,2.50
2019-02-28T04:56:55.047Z,2.60
2019-02-28T05:02:06.146Z,2.90
2019-02-28T05:07:06.150Z,2.80
2019-02-28T05:09:32.850Z,3.00
2019-02-28T05:11:59.479Z,3.00
2019-02-28T05:17:10.778Z,3.20
2019-02-28T05:19:37.548Z,3.20
2019-02-28T05:22:04.288Z,3.20
2019-02-28T05:24:32.583Z,2.60
2019-02-28T05:29:52.827Z,3.00
2019-02-28T05:32:19.552Z,2.90
2019-02-28T05:34:47.438Z,2.40
2019-02-28T05:37:15.357Z,2.50
2019-02-28T05:39:45.121Z,2.60
2019-02-28T05:42:12.087Z,2.40
2019-02-28T05:44:40.301Z,2.60
2019-02-28T05:47:11.940Z,2.50
2019-02-28T05:49:40.680Z,2.90
2019-02-28T05:52:07.048Z,2.70
2019-02-28T05:57:17.812Z,2.80
2019-02-28T05:59:44.563Z,3.00
2019-02-28T06:02:12.182Z,2.90
2019-02-28T06:04:38.917Z,2.70
2019-02-28T06:07:05.634Z,2.90
2019-02-28T06:12:21.212Z,3.20
2019-02-28T06:14:47.920Z,3.90
2019-02-28T06:17:17.388Z,2.80
2019-02-28T06:19:43.581Z,2.80
2019-02-28T06:24:44.823Z,3.30
2019-02-28T06:27:11.895Z,3.30
2019-02-28T06:29:42.231Z,3.70
2019-02-28T06:32:08.940Z,3.90
2019-02-28T06:34:35.715Z,3.80
2019-02-28T06:37:03.729Z,3.80
2019-02-28T06:39:30.816Z,4.30
2019-02-28T06:41:57.513Z,4.30
2019-02-28T06:44:27.751Z,4.30
2019-02-28T06:46:54.501Z,4.40
2019-02-28T06:49:21.069Z,4.50
2019-02-28T06:51:51.310Z,4.50
2019-02-28T06:54:21.602Z,4.50
2019-02-28T06:56:48.622Z,4.90
2019-02-28T06:59:19.457Z,5.10
2019-02-28T07:01:47.193Z,5.30
2019-02-28T07:07:03.628Z,5.60
2019-02-28T07:09:36.448Z,6.00
2019-02-28T07:12:08.050Z,6.10
2019-02-28T07:17:12.293Z,6.30
2019-02-28T07:19:40.306Z,6.60
2019-02-28T07:22:07.337Z,7.00
2019-02-28T07:24:38.207Z,7.20
2019-02-28T07:27:05.701Z,7.50
2019-02-28T07:29:34.450Z,7.70
2019-02-28T07:40:08.648Z,8.00
2019-02-28T07:42:37.548Z,8.10
2019-02-28T07:45:05.698Z,8.40
2019-02-28T07:47:51.338Z,8.70
2019-02-28T07:50:16.241Z,8.80
2019-02-28T07:52:43.726Z,9.00
2019-02-28T07:55:13.801Z,9.10
2019-02-28T07:57:44.442Z,9.20
2019-02-28T08:00:17.476Z,9.20
2019-02-28T08:02:42.496Z,9.50
2019-02-28T08:07:50.514Z,9.30
2019-02-28T08:10:18.293Z,9.60
2019-02-28T08:12:58.178Z,9.80
2019-02-28T08:15:26.061Z,10.00
2019-02-28T08:17:59.931Z,10.10
2019-02-28T08:20:33.789Z,10.00
2019-02-28T08:23:01.442Z,10.20
2019-02-28T08:25:29.297Z,10.20
2019-02-28T08:28:00.766Z,10.40
2019-02-28T08:30:26.350Z,10.80
2019-02-28T08:32:57.461Z,11.10
2019-02-28T08:35:34.051Z,11.20
2019-02-28T08:37:59.908Z,11.30
2019-02-28T08:40:28.923Z,11.20
2019-02-28T08:42:56.669Z,11.40
2019-02-28T08:48:12.630Z,11.60
2019-02-28T08:50:39.402Z,11.40
2019-02-28T08:53:06.050Z,11.70
2019-02-28T08:55:32.773Z,12.20
2019-02-28T08:58:05.123Z,12.50
2019-02-28T09:00:32.842Z,12.70
2019-02-28T09:02:56.600Z,12.60
2019-02-28T09:05:26.171Z,12.60
2019-02-28T09:07:52.023Z,12.50
2019-02-28T09:10:19.044Z,12.90
2019-02-28T09:15:38.356Z,13.20
2019-02-28T09:18:07.337Z,13.50
2019-02-28T09:20:34.127Z,13.30
2019-02-28T09:23:02.180Z,13.50
2019-02-28T09:25:31.306Z,13.70
2019-02-28T09:27:57.740Z,14.20
2019-02-28T09:30:26.454Z,14.50
2019-02-28T09:32:57.751Z,14.40
2019-02-28T09:35:24.495Z,14.60
2019-02-28T09:37:51.153Z,14.40
2019-02-28T09:40:18.408Z,14.70
2019-02-28T09:42:47.921Z,15.00
2019-02-28T09:45:13.426Z,14.60
2019-02-28T09:47:40.514Z,14.50
2019-02-28T09:50:08.071Z,15.10
2019-02-28T09:52:34.800Z,15.60
2019-02-28T09:57:33.612Z,16.20
2019-02-28T10:00:02.793Z,15.70
2019-02-28T10:02:29.858Z,16.10
2019-02-28T10:04:56.650Z,16.10
2019-02-28T10:07:26.485Z,16.40
2019-02-28T10:09:56.538Z,16.80
2019-02-28T10:12:24.340Z,16.80
2019-02-28T10:14:52.058Z,17.00
2019-02-28T10:17:22.710Z,17.10
2019-02-28T10:19:53.078Z,17.30
2019-02-28T10:22:19.827Z,17.50
2019-02-28T10:24:50.501Z,17.40
2019-02-28T10:27:20.106Z,17.40
2019-02-28T10:29:48.374Z,17.60
2019-02-28T10:32:20.986Z,17.70
2019-02-28T10:34:50.365Z,17.60
2019-02-28T10:37:22.649Z,17.70
2019-02-28T10:39:49.181Z,17.60
2019-02-28T10:42:20.266Z,17.80
2019-02-28T10:44:50.129Z,18.00
2019-02-28T10:47:17.163Z,18.00
2019-02-28T10:49:44.160Z,18.30
2019-02-28T10:52:10.824Z,18.60
2019-02-28T10:54:48.659Z,18.60
2019-02-28T10:59:59.201Z,19.20
2019-02-28T11:02:25.892Z,18.80
2019-02-28T11:04:52.552Z,18.90
2019-02-28T11:07:19.302Z,19.50
2019-02-28T11:09:46.341Z,19.70
2019-02-28T11:12:13.105Z,19.90
2019-02-28T11:17:24.107Z,20.30
2019-02-28T11:19:51.998Z,20.40
2019-02-28T11:22:19.691Z,20.50
2019-02-28T11:24:46.609Z,20.00
2019-02-28T11:27:16.149Z,19.90
2019-02-28T11:29:43.704Z,19.90
2019-02-28T11:32:26.406Z,20.30
2019-02-28T11:34:55.462Z,20.50
2019-02-28T11:37:22.713Z,20.40
2019-02-28T11:39:50.107Z,20.40
2019-02-28T11:45:13.587Z,20.50
2019-02-28T11:47:46.677Z,20.70
2019-02-28T11:50:14.032Z,20.70
2019-02-28T11:52:41.360Z,20.70
2019-02-28T11:55:08.752Z,20.30
2019-02-28T11:57:37.772Z,20.20
2019-02-28T12:00:04.926Z,20.60
2019-02-28T12:05:17.865Z,21.10
2019-02-28T12:07:45.150Z,20.70
2019-02-28T12:10:12.400Z,20.30
2019-02-28T12:12:41.592Z,20.60
2019-02-28T12:15:09.047Z,20.70
2019-02-28T12:17:36.345Z,20.90
2019-02-28T12:20:12.076Z,20.90
2019-02-28T12:22:39.424Z,20.90
2019-02-28T12:25:07.669Z,21.20
2019-02-28T12:27:35.973Z,21.80
2019-02-28T12:30:03.343Z,22.10
2019-02-28T12:32:30.846Z,22.30
2019-02-28T12:35:01.411Z,21.10
2019-02-28T12:37:27.982Z,21.30
2019-02-28T12:40:04.163Z,21.60
2019-02-28T12:42:34.366Z,22.00
2019-02-28T12:45:00.653Z,22.80
2019-02-28T12:47:29.445Z,22.80
2019-02-28T12:52:41.886Z,23.70
2019-02-28T12:55:10.645Z,23.70
2019-02-28T12:57:38.088Z,23.20
2019-02-28T13:00:05.359Z,22.90
2019-02-28T13:02:35.466Z,22.90
2019-02-28T13:05:02.785Z,22.90
2019-02-28T13:07:30.417Z,23.00
2019-02-28T13:10:00.236Z,23.30
2019-02-28T13:12:27.623Z,23.70
2019-02-28T13:17:46.074Z,24.10
2019-02-28T13:20:17.105Z,24.00
2019-02-28T13:22:45.624Z,23.40
2019-02-28T13:25:15.233Z,23.40
2019-02-28T13:27:46.438Z,23.80
2019-02-28T13:30:16.557Z,23.80
2019-02-28T13:32:46.078Z,24.20
2019-02-28T13:35:45.173Z,24.70
2019-02-28T13:38:07.158Z,24.60
2019-02-28T13:40:36.444Z,24.40
2019-02-28T13:43:07.379Z,24.40
2019-02-28T13:45:35.256Z,24.10
2019-02-28T13:48:03.487Z,24.00
2019-02-28T13:50:32.793Z,23.90
2019-02-28T13:56:01.043Z,23.70
2019-02-28T13:58:31.705Z,23.80
2019-02-28T14:00:58.973Z,23.50
2019-02-28T14:03:29.537Z,23.40
2019-02-28T14:06:12.216Z,23.40
2019-02-28T14:08:42.059Z,23.70
2019-02-28T14:11:16.056Z,23.60
2019-02-28T14:13:45.834Z,23.40
2019-02-28T14:16:13.274Z,23.60
2019-02-28T14:21:20.853Z,23.80
2019-02-28T14:23:55.901Z,23.80
2019-02-28T14:28:56.876Z,23.50
2019-02-28T14:31:24.359Z,23.30
2019-02-28T14:33:54.410Z,23.40
2019-02-28T14:36:25.380Z,23.40
2019-02-28T14:38:56.408Z,23.20
2019-02-28T14:41:24.725Z,23.20
2019-02-28T14:43:57.848Z,23.40
2019-02-28T14:46:34.632Z,23.60
2019-02-28T14:48:59.882Z,23.60
2019-02-28T14:53:56.316Z,23.30
2019-02-28T14:56:24.680Z,23.20
2019-02-28T14:58:54.506Z,22.60
2019-02-28T15:01:22.111Z,22.50
2019-02-28T15:03:49.278Z,22.30
2019-02-28T15:06:16.604Z,22.10
2019-02-28T15:08:43.766Z,22.00
2019-02-28T15:11:14.609Z,21.70
2019-02-28T15:13:41.921Z,21.60
2019-02-28T15:16:09.127Z,21.70
2019-02-28T15:18:36.352Z,21.60
2019-02-28T15:21:04.516Z,21.30
2019-02-28T15:23:34.209Z,21.20
2019-02-28T15:26:01.478Z,21.20
2019-02-28T15:28:28.791Z,21.40
2019-02-28T15:30:56.326Z,21.10
2019-02-28T15:33:30.151Z,21.10
2019-02-28T15:35:55.793Z,21.00
2019-02-28T15:38:23.517Z,20.90
2019-02-28T15:40:51.228Z,20.90
2019-02-28T15:43:18.577Z,20.90
2019-02-28T15:45:45.722Z,20.70
2019-02-28T15:48:14.368Z,20.70
2019-02-28T15:50:41.690Z,20.60
2019-02-28T15:53:11.253Z,20.50
2019-02-28T15:55:38.059Z,20.50
2019-02-28T15:58:05.871Z,20.50
2019-02-28T16:00:34.082Z,20.30
2019-02-28T16:03:02.093Z,20.30
2019-02-28T16:05:29.596Z,20.30
2019-02-28T16:07:57.819Z,20.30
2019-02-28T16:10:25.207Z,20.10
2019-02-28T16:12:52.383Z,20.00
2019-02-28T16:15:19.610Z,20.00
2019-02-28T16:17:47.197Z,19.90
2019-02-28T16:20:14.499Z,19.90
2019-02-28T16:22:41.730Z,19.80
2019-02-28T16:25:11.524Z,19.90
2019-02-28T16:27:39.339Z,19.90
2019-02-28T16:30:07.768Z,19.80
2019-02-28T16:32:36.165Z,19.80
2019-02-28T16:35:04.311Z,19.80
2019-02-28T16:37:32.291Z,19.70
2019-02-28T16:40:01.517Z,19.60
2019-02-28T16:42:28.764Z,19.60
2019-02-28T16:44:55.983Z,19.60
2019-02-28T16:47:24.316Z,19.70
2019-02-28T16:49:52.393Z,19.60
2019-02-28T16:52:23.409Z,19.40
2019-02-28T16:54:53.363Z,19.30
2019-02-28T16:57:19.942Z,19.30
2019-02-28T16:59:49.196Z,19.10
2019-02-28T17:02:16.519Z,19.10
2019-02-28T17:04:43.726Z,19.00
2019-02-28T17:07:15.961Z,19.10
2019-02-28T17:09:43.456Z,19.00
2019-02-28T17:12:12.724Z,19.10
2019-02-28T17:14:39.930Z,19.10
2019-02-28T17:17:12.542Z,19.00
2019-02-28T17:19:39.658Z,19.10
2019-02-28T17:22:07.931Z,18.90
2019-02-28T17:24:37.863Z,18.90
2019-02-28T17:27:07.598Z,18.90
2019-02-28T17:29:36.663Z,19.00
2019-02-28T17:32:07.947Z,18.90
2019-02-28T17:34:35.215Z,19.00
2019-02-28T17:37:06.871Z,18.70
2019-02-28T17:39:38.381Z,18.50
2019-02-28T17:42:08.900Z,18.80
2019-02-28T17:44:37.544Z,19.00
2019-02-28T17:49:52.663Z,18.80
2019-02-28T17:52:23.741Z,18.10
2019-02-28T17:54:54.215Z,17.30
2019-02-28T17:57:27.136Z,17.10
2019-02-28T17:59:56.609Z,16.70
2019-02-28T18:02:26.390Z,16.60
2019-02-28T18:05:03.691Z,16.70
2019-02-28T18:07:32.706Z,16.80
2019-02-28T18:10:01.365Z,16.20
2019-02-28T18:12:29.799Z,16.10
2019-02-28T18:14:56.395Z,15.90
2019-02-28T18:17:22.984Z,15.90
2019-02-28T18:19:51.196Z,15.80
2019-02-28T18:22:20.177Z,15.80
2019-02-28T18:24:46.760Z,15.80
2019-02-28T18:27:13.391Z,15.90
2019-02-28T18:29:44.201Z,15.80
2019-02-28T18:32:12.453Z,15.40
2019-02-28T20:06:18.640Z,15.40
2019-02-28T20:11:30.039Z,15.50
2019-02-28T20:13:56.647Z,15.90
2019-02-28T20:16:23.268Z,16.10
2019-02-28T20:18:50.474Z,16.20
2019-02-28T20:21:17.119Z,16.10
2019-02-28T20:23:44.061Z,16.20
2019-02-28T20:26:10.725Z,16.50
2019-02-28T20:28:39.918Z,16.70
2019-02-28T20:31:07.805Z,16.60
2019-02-28T20:33:36.747Z,16.40
2019-02-28T20:36:03.677Z,16.30
2019-02-28T20:46:21.829Z,16.80
2019-02-28T20:48:49.673Z,16.70
2019-02-28T20:51:17.939Z,16.40
2019-02-28T20:53:45.678Z,16.30
2019-02-28T20:56:14.351Z,16.70
2019-02-28T20:58:46.227Z,16.80
2019-02-28T21:01:13.295Z,16.70
2019-02-28T21:03:42.919Z,16.30
2019-02-28T21:06:09.564Z,15.70
2019-02-28T21:08:36.249Z,15.60
2019-02-28T21:11:03.156Z,15.60
2019-02-28T21:13:30.034Z,15.90
2019-02-28T21:15:56.676Z,15.30
2019-02-28T21:18:23.597Z,15.30
2019-02-28T21:20:50.540Z,15.50
2019-02-28T21:23:17.339Z,15.80
2019-02-28T21:25:43.962Z,15.90
2019-02-28T21:28:10.869Z,15.70
2019-02-28T21:30:37.530Z,15.70
2019-02-28T21:33:04.390Z,15.90
2019-02-28T21:35:30.989Z,15.30
2019-02-28T21:37:57.723Z,15.50
2019-02-28T21:40:24.665Z,15.30
2019-02-28T21:42:51.602Z,15.20
2019-02-28T21:45:18.326Z,15.10
2019-02-28T21:47:45.206Z,14.60
2019-02-28T21:50:12.585Z,14.40
2019-02-28T21:52:39.384Z,13.80
2019-02-28T21:55:06.317Z,13.80
2019-02-28T21:57:33.340Z,13.50
2019-02-28T22:00:00.333Z,13.20
2019-02-28T22:02:26.922Z,13.40
2019-02-28T22:04:54.691Z,13.60
2019-02-28T22:07:21.406Z,13.10
2019-02-28T22:09:48.046Z,13.10
2019-02-28T22:12:15.567Z,12.60
2019-02-28T22:14:42.334Z,13.00
2019-02-28T22:17:09.640Z,13.30
2019-02-28T22:19:36.683Z,13.20
2019-02-28T22:22:03.314Z,12.90
2019-02-28T22:24:30.190Z,12.70
2019-02-28T22:26:57.630Z,12.70
2019-02-28T22:29:24.304Z,12.50
2019-02-28T22:31:51.206Z,12.70
2019-02-28T22:34:18.963Z,12.20
2019-02-28T22:36:45.598Z,12.00
2019-02-28T22:39:12.542Z,12.00
2019-02-28T22:41:39.637Z,12.10
2019-02-28T22:44:06.305Z,12.30
2019-02-28T22:46:33.204Z,11.70
2019-02-28T22:49:00.616Z,11.60
2019-02-28T22:51:27.254Z,11.80
2019-02-28T22:53:53.881Z,11.60
2019-02-28T22:56:21.642Z,11.70
2019-02-28T22:58:48.293Z,11.70
2019-02-28T23:01:14.975Z,12.10
2019-02-28T23:03:42.504Z,12.00
2019-02-28T23:06:09.394Z,10.80
2019-02-28T23:08:36.251Z,10.00
2019-02-28T23:11:03.581Z,9.90
2019-02-28T23:13:30.521Z,10.50
2019-02-28T23:15:57.388Z,10.70
2019-02-28T23:18:24.595Z,10.20
2019-02-28T23:20:51.384Z,10.70
2019-02-28T23:26:06.104Z,11.00
2019-02-28T23:28:30.781Z,10.30
2019-02-28T23:30:57.520Z,10.80
2019-02-28T23:33:24.651Z,10.80
2019-02-28T23:35:51.597Z,10.50
2019-02-28T23:38:18.459Z,10.50
2019-02-28T23:40:45.669Z,10.30
2019-02-28T23:43:12.555Z,10.50
2019-02-28T23:45:39.234Z,11.00
2019-02-28T23:48:06.485Z,10.80
2019-02-28T23:50:33.323Z,10.60
2019-02-28T23:53:00.260Z,11.00
2019-02-28T23:55:27.443Z,11.00
2019-02-28T23:57:54.424Z,11.10
